createdAt,value
2022-08-19T00:01:53.310Z,12.9
2022-08-19T00:07:26.410Z,12.8
2022-08-19T00:13:01.972Z,12.7
2022-08-19T00:19:43.543Z,12.7
2022-08-19T00:25:18.511Z,12.7
2022-08-19T00:30:53.589Z,12.7
2022-08-19T00:36:29.100Z,12.8
2022-08-19T00:42:03.590Z,12.8
2022-08-19T00:47:38.579Z,12.8
2022-08-19T00:53:13.573Z,12.7
2022-08-19T00:58:48.608Z,12.7
2022-08-19T01:05:30.216Z,12.7
2022-08-19T01:11:05.157Z,12.7
2022-08-19T01:16:40.257Z,12.7
2022-08-19T01:22:15.465Z,12.8
2022-08-19T01:27:50.804Z,12.4
2022-08-19T01:33:25.230Z,12
2022-08-19T01:39:00.450Z,11.9
2022-08-19T01:44:35.343Z,12
2022-08-19T01:50:10.278Z,12.3
2022-08-19T01:55:45.340Z,12.3
2022-08-19T02:01:20.901Z,12.4
2022-08-19T02:06:55.289Z,12.3
2022-08-19T02:12:30.303Z,12.3
2022-08-19T02:18:05.371Z,12.3
2022-08-19T02:23:40.325Z,12.2
2022-08-19T02:29:15.297Z,12.2
2022-08-19T02:34:50.291Z,12.2
2022-08-19T02:40:26.414Z,12.2
2022-08-19T02:47:07.478Z,12.2
2022-08-19T02:52:42.463Z,12.2
2022-08-19T02:58:17.482Z,12.2
2022-08-19T03:03:52.496Z,12.2
2022-08-19T03:09:28.074Z,12.2
2022-08-19T03:15:02.491Z,12.2
2022-08-19T03:20:37.527Z,12.2
2022-08-19T03:26:16.558Z,12.3
2022-08-19T03:31:52.717Z,12.3
2022-08-19T03:37:22.545Z,12.2
2022-08-19T03:42:57.540Z,12.2
2022-08-19T03:48:32.562Z,12.2
2022-08-19T03:54:07.528Z,12.3
2022-08-19T03:59:42.529Z,12.3
2022-08-19T04:05:17.570Z,12.3
2022-08-19T04:10:52.599Z,12.3
2022-08-19T04:16:31.082Z,12.3
2022-08-19T04:22:02.628Z,12.3
2022-08-19T04:27:37.687Z,12.3
2022-08-19T04:33:12.574Z,12.4
2022-08-19T04:38:47.575Z,12.4
2022-08-19T04:44:23.188Z,12.4
2022-08-19T04:49:57.553Z,12.3
2022-08-19T04:55:37.890Z,12.2
2022-08-19T05:01:07.718Z,12.2
2022-08-19T05:06:42.622Z,12.2
2022-08-19T05:12:17.649Z,12.3
2022-08-19T05:17:52.640Z,12.3
2022-08-19T05:23:27.671Z,12.2
2022-08-19T05:30:09.229Z,12.1
2022-08-19T05:35:44.249Z,12
2022-08-19T05:41:19.383Z,12
2022-08-19T05:46:54.212Z,12.1
2022-08-19T05:53:36.388Z,12.2
2022-08-19T05:59:11.330Z,12.2
2022-08-19T06:04:46.416Z,12.2
2022-08-19T06:10:21.351Z,12.3
2022-08-19T06:15:56.960Z,12.4
2022-08-19T06:21:31.435Z,12.5
2022-08-19T06:27:06.560Z,12.6
2022-08-19T06:32:42.987Z,12.9
2022-08-19T06:38:16.445Z,13.2
2022-08-19T06:43:54.014Z,13.4
2022-08-19T06:49:26.488Z,13.4
2022-08-19T06:55:02.047Z,13.2
2022-08-19T07:01:43.605Z,13.2
2022-08-19T07:07:20.301Z,13.2
2022-08-19T07:12:53.807Z,13.2
2022-08-19T07:18:28.698Z,13.2
2022-08-19T07:24:05.466Z,13.2
